createdAt,value
2019-05-29T00:00:13.408Z,98891.48
2019-05-29T00:02:43.071Z,98900.32
2019-05-29T00:05:12.201Z,98903.16
2019-05-29T00:07:41.064Z,98905.20
2019-05-29T00:10:10.470Z,98910.34
2019-05-29T00:12:39.294Z,98906.11
2019-05-29T00:15:08.458Z,98907.70
2019-05-29T00:17:37.162Z,98908.95
2019-05-29T00:20:06.684Z,98913.77
2019-05-29T00:22:35.463Z,98909.95
2019-05-29T00:25:06.722Z,98910.09
2019-05-29T00:27:35.429Z,98915.02
2019-05-29T00:30:06.926Z,98921.75
2019-05-29T00:32:36.170Z,98920.70
2019-05-29T00:35:08.224Z,98923.83
2019-05-29T00:37:37.236Z,98918.23
2019-05-29T00:40:08.921Z,98919.05
2019-05-29T00:42:37.777Z,98922.69
2019-05-29T00:45:11.359Z,98929.20
2019-05-29T00:47:40.317Z,98926.70
2019-05-29T00:50:10.082Z,98930.24
2019-05-29T00:52:38.917Z,98936.83
2019-05-29T00:55:08.723Z,98935.98
2019-05-29T00:57:37.557Z,98937.97
2019-05-29T01:00:07.224Z,98942.49
2019-05-29T01:02:35.956Z,98948.75
2019-05-29T01:05:06.688Z,98949.20
2019-05-29T01:07:35.446Z,98955.55
2019-05-29T01:10:05.806Z,98953.11
2019-05-29T01:12:34.547Z,98956.09
2019-05-29T01:15:03.304Z,98953.98
2019-05-29T01:17:32.028Z,98958.19
2019-05-29T01:20:00.748Z,98959.63
2019-05-29T01:22:29.622Z,98966.89
2019-05-29T01:24:58.354Z,98958.82
2019-05-29T01:27:27.211Z,98965.30
2019-05-29T01:29:56.216Z,98959.14
2019-05-29T01:32:24.944Z,98972.19
2019-05-29T01:34:53.666Z,98971.36
2019-05-29T01:37:22.442Z,98976.34
2019-05-29T01:39:51.179Z,98976.86
2019-05-29T01:42:19.912Z,98978.70
2019-05-29T01:44:48.792Z,98985.88
2019-05-29T01:47:17.521Z,98983.93
2019-05-29T01:49:46.646Z,98984.80
2019-05-29T01:52:15.602Z,98986.56
2019-05-29T01:54:44.318Z,98988.85
2019-05-29T01:57:13.055Z,98996.95
2019-05-29T01:59:42.039Z,98992.34
2019-05-29T02:02:10.760Z,98999.34
2019-05-29T02:04:39.492Z,98993.63
2019-05-29T02:07:08.361Z,98990.53
2019-05-29T02:09:37.094Z,98994.24
2019-05-29T02:12:05.922Z,98997.83
2019-05-29T02:14:34.727Z,99003.52
2019-05-29T02:17:03.449Z,99011.65
2019-05-29T02:19:32.175Z,99009.44
2019-05-29T02:22:01.144Z,99012.19
2019-05-29T02:24:29.869Z,99007.17
2019-05-29T02:26:58.592Z,99015.38
2019-05-29T02:29:27.671Z,99024.84
2019-05-29T02:31:56.413Z,99025.00
2019-05-29T02:34:27.273Z,99028.06
2019-05-29T02:36:55.721Z,99030.70
2019-05-29T02:39:25.637Z,99028.83
2019-05-29T02:41:54.886Z,99026.31
2019-05-29T02:44:25.281Z,99031.72
2019-05-29T02:46:54.271Z,99037.45
2019-05-29T02:49:23.871Z,99031.04
2019-05-29T02:51:53.045Z,99037.88
2019-05-29T02:54:22.556Z,99031.13
2019-05-29T02:56:51.375Z,99032.69
2019-05-29T02:59:21.055Z,99038.54
2019-05-29T03:01:50.144Z,99038.98
2019-05-29T03:04:18.989Z,99036.15
2019-05-29T03:06:47.901Z,99037.24
2019-05-29T03:09:16.627Z,99036.47
2019-05-29T03:11:45.352Z,99045.16
2019-05-29T03:14:14.139Z,99049.11
2019-05-29T03:16:42.874Z,99062.56
2019-05-29T03:19:11.596Z,99056.82
2019-05-29T03:21:40.555Z,99060.80
2019-05-29T03:24:09.288Z,99059.00
2019-05-29T03:26:38.452Z,99064.63
2019-05-29T03:29:07.471Z,99069.25
2019-05-29T03:31:43.492Z,99082.00
2019-05-29T03:34:06.661Z,99081.74
2019-05-29T03:36:43.883Z,99091.09
2019-05-29T03:39:07.264Z,99099.59
2019-05-29T03:41:35.998Z,99103.11
2019-05-29T03:44:04.858Z,99100.36
2019-05-29T03:46:41.128Z,99104.42
2019-05-29T03:49:14.075Z,99106.05
2019-05-29T03:51:42.563Z,99117.22
2019-05-29T03:54:11.294Z,99116.44
2019-05-29T03:56:40.035Z,99117.59
2019-05-29T03:59:08.997Z,99128.08
2019-05-29T04:01:39.298Z,99131.33
2019-05-29T04:04:08.032Z,99127.66
2019-05-29T04:06:37.573Z,99124.18
2019-05-29T04:09:07.374Z,99128.38
2019-05-29T04:11:37.954Z,99126.69
2019-05-29T04:14:07.276Z,99122.73
2019-05-29T04:16:54.102Z,99124.71
2019-05-29T04:19:07.119Z,99129.77
2019-05-29T04:21:38.676Z,99127.45
2019-05-29T04:24:08.116Z,99121.80
2019-05-29T04:26:45.923Z,99123.13
2019-05-29T04:29:14.849Z,99116.87
2019-05-29T04:31:43.566Z,99116.88
2019-05-29T04:34:12.540Z,99118.65
2019-05-29T04:36:41.350Z,99117.55
2019-05-29T04:39:10.110Z,99123.66
2019-05-29T04:41:39.335Z,99134.63
2019-05-29T04:44:08.309Z,99143.05
2019-05-29T04:46:38.495Z,99141.67
2019-05-29T04:49:07.603Z,99144.23
2019-05-29T04:51:39.687Z,99143.77
2019-05-29T04:54:08.226Z,99152.41
2019-05-29T04:56:37.265Z,99159.41
2019-05-29T04:59:05.999Z,99158.36
2019-05-29T05:01:35.097Z,99169.50
2019-05-29T05:04:03.873Z,99168.31
2019-05-29T05:06:33.219Z,99173.28
2019-05-29T05:09:01.999Z,99178.30
2019-05-29T05:11:31.326Z,99176.48
2019-05-29T05:14:01.700Z,99175.11
2019-05-29T05:16:31.684Z,99172.44
2019-05-29T05:19:00.686Z,99170.33
2019-05-29T05:21:29.851Z,99173.13
2019-05-29T05:23:58.717Z,99172.22
2019-05-29T05:26:27.762Z,99173.34
2019-05-29T05:28:56.502Z,99171.76
2019-05-29T05:31:25.224Z,99174.16
2019-05-29T05:33:54.092Z,99183.12
2019-05-29T05:36:23.772Z,99182.19
2019-05-29T05:38:52.491Z,99184.86
2019-05-29T05:41:21.257Z,99189.77
2019-05-29T05:43:49.968Z,99186.53
2019-05-29T05:46:18.681Z,99182.91
2019-05-29T05:48:47.584Z,99185.80
2019-05-29T05:51:16.297Z,99183.89
2019-05-29T05:53:45.012Z,99181.02
2019-05-29T05:56:13.776Z,99185.24
2019-05-29T05:58:42.563Z,99181.23
2019-05-29T06:01:11.295Z,99184.27
2019-05-29T06:03:42.215Z,99182.58
2019-05-29T06:06:11.308Z,99182.19
2019-05-29T06:08:40.305Z,99186.75
2019-05-29T06:11:09.265Z,99190.95
2019-05-29T06:13:38.392Z,99196.22
2019-05-29T06:16:07.182Z,99193.89
2019-05-29T06:18:36.561Z,99196.38
2019-05-29T06:21:05.368Z,99192.75
2019-05-29T06:23:34.771Z,99203.72
2019-05-29T06:26:03.819Z,99198.06
2019-05-29T06:28:32.993Z,99206.22
2019-05-29T06:31:01.858Z,99210.25
2019-05-29T06:33:30.725Z,99209.69
2019-05-29T06:35:59.445Z,99216.41
2019-05-29T06:38:28.168Z,99215.06
2019-05-29T06:40:57.145Z,99216.66
2019-05-29T06:43:26.670Z,99209.48
2019-05-29T06:45:55.893Z,99217.11
2019-05-29T06:48:41.408Z,99216.05
2019-05-29T06:50:57.957Z,99215.72
2019-05-29T06:53:26.797Z,99210.50
2019-05-29T06:55:57.220Z,99217.13
2019-05-29T06:58:26.091Z,99214.84
2019-05-29T07:00:54.805Z,99214.84
2019-05-29T07:03:23.706Z,99209.76
2019-05-29T07:05:53.025Z,99210.76
2019-05-29T07:08:37.520Z,99208.05
2019-05-29T07:10:52.525Z,99206.67
2019-05-29T07:13:21.255Z,99206.20
2019-05-29T07:15:50.085Z,99207.78
2019-05-29T07:18:18.960Z,99207.91
2019-05-29T07:20:47.695Z,99207.02
2019-05-29T07:23:16.418Z,99210.07
2019-05-29T07:25:45.646Z,99213.64
2019-05-29T07:28:14.568Z,99214.41
2019-05-29T07:30:49.842Z,99214.19
2019-05-29T07:33:13.787Z,99214.01
2019-05-29T07:35:43.540Z,99222.45
2019-05-29T07:38:12.409Z,99216.37
2019-05-29T07:40:42.648Z,99216.73
2019-05-29T07:43:11.683Z,99215.39
2019-05-29T07:45:40.709Z,99217.27
2019-05-29T07:48:10.710Z,99211.41
2019-05-29T07:50:40.091Z,99210.70
2019-05-29T07:53:08.925Z,99205.53
2019-05-29T07:55:38.435Z,99204.45
2019-05-29T07:58:10.166Z,99204.06
2019-05-29T08:01:02.646Z,99203.08
2019-05-29T08:03:09.911Z,99206.42
2019-05-29T08:05:39.179Z,99199.83
2019-05-29T08:08:08.022Z,99195.77
2019-05-29T08:10:36.917Z,99198.47
2019-05-29T08:13:06.906Z,99203.42
2019-05-29T08:15:52.100Z,99196.31
2019-05-29T08:18:06.167Z,99197.88
2019-05-29T08:20:34.881Z,99195.41
2019-05-29T08:23:03.602Z,99197.80
2019-05-29T08:25:32.475Z,99196.55
2019-05-29T08:28:01.180Z,99200.59
2019-05-29T08:30:29.907Z,99193.95
2019-05-29T08:32:58.741Z,99193.05
2019-05-29T08:35:27.462Z,99193.07
2019-05-29T08:37:56.183Z,99196.75
2019-05-29T08:40:25.049Z,99191.19
2019-05-29T08:42:53.835Z,99191.28
2019-05-29T08:45:22.565Z,99188.34
2019-05-29T08:47:51.941Z,99190.03
2019-05-29T08:50:20.929Z,99189.94
2019-05-29T08:52:50.118Z,99197.58
2019-05-29T08:55:19.380Z,99195.18
2019-05-29T08:57:48.451Z,99192.60
2019-05-29T09:00:18.521Z,99194.11
2019-05-29T09:02:48.910Z,99191.98
2019-05-29T09:05:17.838Z,99190.17
2019-05-29T09:07:48.347Z,99184.00
2019-05-29T09:10:17.247Z,99185.58
2019-05-29T09:12:54.996Z,99184.47
2019-05-29T09:15:21.216Z,99180.15
2019-05-29T09:17:47.337Z,99177.80
2019-05-29T09:20:57.446Z,99177.19
2019-05-29T09:23:01.887Z,99177.28
2019-05-29T09:25:30.607Z,99177.95
2019-05-29T09:27:59.372Z,99169.98
2019-05-29T09:30:28.495Z,99166.61
2019-05-29T09:32:57.222Z,99162.36
2019-05-29T09:35:25.943Z,99169.66
2019-05-29T09:37:54.831Z,99161.99
2019-05-29T09:40:24.979Z,99164.73
2019-05-29T09:42:53.753Z,99160.33
2019-05-29T09:45:23.465Z,99158.23
2019-05-29T09:47:52.275Z,99152.52
2019-05-29T09:50:23.383Z,99155.19
2019-05-29T09:52:53.213Z,99152.30
2019-05-29T09:55:22.225Z,99153.92
2019-05-29T09:57:53.474Z,99157.50
2019-05-29T10:00:21.545Z,99154.00
2019-05-29T10:02:50.282Z,99147.52
2019-05-29T10:05:19.111Z,99146.56
2019-05-29T10:07:47.964Z,99139.84
2019-05-29T10:10:17.578Z,99143.93
2019-05-29T10:12:46.308Z,99142.38
2019-05-29T10:15:15.741Z,99134.50
2019-05-29T10:17:44.590Z,99135.00
2019-05-29T10:20:14.859Z,99137.09
2019-05-29T10:22:43.633Z,99131.03
2019-05-29T10:25:13.480Z,99130.81
2019-05-29T10:27:42.213Z,99133.33
2019-05-29T10:30:11.956Z,99129.21
2019-05-29T10:32:42.452Z,99122.86
2019-05-29T10:35:11.428Z,99126.80
2019-05-29T10:37:40.323Z,99120.53
2019-05-29T10:40:09.755Z,99124.50
2019-05-29T10:42:38.488Z,99120.93
2019-05-29T10:45:12.505Z,99126.02
2019-05-29T10:47:41.311Z,99121.97
2019-05-29T10:50:11.288Z,99115.11
2019-05-29T10:52:40.128Z,99119.00
2019-05-29T10:55:12.946Z,99104.53
2019-05-29T10:57:41.692Z,99108.25
2019-05-29T11:00:10.866Z,99108.62
2019-05-29T11:02:39.683Z,99105.98
2019-05-29T11:05:08.892Z,99103.73
2019-05-29T11:07:37.756Z,99104.11
2019-05-29T11:10:08.299Z,99096.88
2019-05-29T11:12:39.526Z,99088.34
2019-05-29T11:15:20.710Z,99082.52
2019-05-29T11:17:40.059Z,99083.14
2019-05-29T11:20:10.483Z,99066.33
2019-05-29T11:22:39.392Z,99068.27
2019-05-29T11:25:21.578Z,99066.50
2019-05-29T11:27:38.934Z,99063.92
2019-05-29T11:30:09.872Z,99059.98
2019-05-29T11:32:38.589Z,99059.52
2019-05-29T11:35:08.125Z,99055.48
2019-05-29T11:37:36.925Z,99043.16
2019-05-29T11:40:07.918Z,99051.61
2019-05-29T11:42:36.632Z,99047.98
2019-05-29T11:45:10.310Z,99043.30
2019-05-29T11:47:39.022Z,99044.93
2019-05-29T11:50:19.162Z,99046.34
2019-05-29T11:52:43.220Z,99047.11
2019-05-29T11:55:12.770Z,99043.34
2019-05-29T11:57:43.481Z,99044.81
2019-05-29T12:00:20.430Z,99040.13
2019-05-29T12:02:45.183Z,99036.50
2019-05-29T12:05:15.651Z,99037.52
2019-05-29T12:07:44.526Z,99038.11
2019-05-29T12:10:13.882Z,99033.47
2019-05-29T12:12:42.591Z,99030.86
2019-05-29T12:15:16.022Z,99025.89
2019-05-29T12:17:42.447Z,99019.79
2019-05-29T12:20:26.931Z,99018.34
2019-05-29T12:23:10.956Z,99017.73
2019-05-29T12:25:16.199Z,99015.17
2019-05-29T12:27:44.950Z,99009.97
2019-05-29T12:30:17.320Z,99008.98
2019-05-29T12:32:46.044Z,99018.33
2019-05-29T12:35:15.164Z,99010.42
2019-05-29T12:37:44.029Z,99002.42
2019-05-29T12:40:14.312Z,99012.70
2019-05-29T12:42:45.051Z,99009.38
2019-05-29T12:45:14.058Z,98992.39
2019-05-29T12:47:42.777Z,98991.89
2019-05-29T12:50:13.661Z,98997.84
2019-05-29T12:52:43.036Z,98994.70
2019-05-29T12:55:12.252Z,99000.31
2019-05-29T12:57:41.091Z,98998.12
2019-05-29T13:00:11.192Z,98994.41
2019-05-29T13:02:40.047Z,98991.55
2019-05-29T13:05:18.005Z,98983.20
2019-05-29T13:07:39.918Z,98984.65
2019-05-29T13:10:09.436Z,98986.13
2019-05-29T13:12:38.261Z,98985.33
2019-05-29T13:15:15.135Z,98987.47
2019-05-29T13:17:43.852Z,98985.69
2019-05-29T13:20:21.211Z,98980.73
2019-05-29T13:22:43.688Z,98978.64
2019-05-29T13:25:14.318Z,98982.24
2019-05-29T13:27:43.045Z,98979.80
2019-05-29T13:30:13.205Z,98983.05
2019-05-29T13:32:42.521Z,98974.06
2019-05-29T13:35:12.939Z,98969.12
2019-05-29T13:37:41.826Z,98966.75
2019-05-29T13:40:14.244Z,98967.81
2019-05-29T13:42:42.975Z,98967.91
2019-05-29T13:45:17.690Z,98964.08
2019-05-29T13:47:42.696Z,98963.41
2019-05-29T13:50:12.742Z,98960.39
2019-05-29T13:52:41.866Z,98952.53
2019-05-29T13:55:12.131Z,98947.16
2019-05-29T13:57:40.866Z,98947.89
2019-05-29T14:00:33.696Z,98946.55
2019-05-29T14:02:44.339Z,98951.44
2019-05-29T14:05:15.074Z,98952.81
2019-05-29T14:07:43.956Z,98947.45
2019-05-29T14:10:13.100Z,98944.70
2019-05-29T14:12:41.840Z,98943.66
2019-05-29T14:15:12.423Z,98940.63
2019-05-29T14:17:41.261Z,98939.06
2019-05-29T14:20:11.260Z,98940.58
2019-05-29T14:22:40.309Z,98935.77
2019-05-29T14:25:11.538Z,98945.75
2019-05-29T14:27:40.544Z,98942.52
2019-05-29T14:30:11.291Z,98944.13
2019-05-29T14:32:40.036Z,98942.19
2019-05-29T14:35:10.997Z,98944.08
2019-05-29T14:37:40.132Z,98948.84
2019-05-29T14:40:12.133Z,98948.13
2019-05-29T14:42:41.071Z,98944.06
2019-05-29T14:45:10.605Z,98941.81
2019-05-29T14:47:39.539Z,98946.62
2019-05-29T14:50:11.180Z,98944.75
2019-05-29T14:52:40.632Z,98952.16
2019-05-29T14:55:14.127Z,98948.72
2019-05-29T14:57:40.062Z,98952.84
2019-05-29T15:00:22.223Z,98946.45
2019-05-29T15:02:41.605Z,98953.62
2019-05-29T15:05:12.093Z,98956.39
2019-05-29T15:07:41.444Z,98955.03
2019-05-29T15:10:22.727Z,98955.41
2019-05-29T15:12:41.139Z,98949.78
2019-05-29T15:15:13.156Z,98958.66
2019-05-29T15:17:41.390Z,98956.66
2019-05-29T15:20:12.516Z,98944.84
2019-05-29T15:22:42.207Z,98944.94
2019-05-29T15:25:19.973Z,98953.08
2019-05-29T15:27:42.027Z,98949.48
2019-05-29T15:30:17.619Z,98950.74
2019-05-29T15:32:42.475Z,98950.66
2019-05-29T15:35:14.869Z,98947.88
2019-05-29T15:37:42.062Z,98945.77
2019-05-29T15:40:12.877Z,98945.80
2019-05-29T15:42:41.687Z,98942.13
2019-05-29T15:45:14.025Z,98943.41
2019-05-29T15:47:42.940Z,98938.75
2019-05-29T15:50:13.611Z,98947.38
2019-05-29T15:52:43.231Z,98941.67
2019-05-29T15:55:32.167Z,98942.70
2019-05-29T15:57:44.689Z,98941.81
2019-05-29T16:00:15.634Z,98947.77
2019-05-29T16:02:48.378Z,98943.63
2019-05-29T16:05:17.229Z,98946.76
2019-05-29T16:07:46.367Z,98947.80
2019-05-29T16:10:18.534Z,98952.97
2019-05-29T16:12:45.916Z,98947.36
2019-05-29T16:15:15.340Z,98945.64
2019-05-29T16:17:44.289Z,98954.31
2019-05-29T16:20:14.268Z,98958.47
2019-05-29T16:22:43.341Z,98960.03
2019-05-29T16:25:12.787Z,98959.67
2019-05-29T16:27:41.664Z,98961.61
2019-05-29T16:30:13.454Z,98959.38
2019-05-29T16:32:42.459Z,98963.04
2019-05-29T16:35:13.075Z,98972.89
2019-05-29T16:37:41.976Z,98972.60
2019-05-29T16:40:11.931Z,98976.49
2019-05-29T16:42:40.682Z,98975.97
2019-05-29T16:45:12.227Z,98980.83
2019-05-29T16:47:41.059Z,98979.11
2019-05-29T16:50:10.581Z,98979.11
2019-05-29T16:52:39.539Z,98976.14
2019-05-29T16:55:09.111Z,98970.23
2019-05-29T16:57:37.852Z,98979.94
2019-05-29T17:00:11.510Z,98993.22
2019-05-29T17:02:40.401Z,98992.48
2019-05-29T17:05:09.620Z,98996.63
2019-05-29T17:07:38.906Z,99001.94
2019-05-29T17:10:08.316Z,98999.17
2019-05-29T17:12:37.058Z,98999.70
2019-05-29T17:15:11.795Z,98992.98
2019-05-29T17:17:40.504Z,98996.39
2019-05-29T17:20:09.741Z,99000.26
2019-05-29T17:22:38.785Z,99004.27
2019-05-29T17:25:08.112Z,99004.11
2019-05-29T17:27:36.828Z,99004.11
2019-05-29T17:30:09.872Z,99007.53
2019-05-29T17:32:38.606Z,99009.61
2019-05-29T17:35:09.407Z,99007.59
2019-05-29T17:37:38.544Z,99001.95
2019-05-29T17:40:08.366Z,99010.45
2019-05-29T17:42:37.083Z,99006.58
2019-05-29T17:45:10.317Z,98997.38
2019-05-29T17:47:39.471Z,98983.34
2019-05-29T17:50:09.278Z,98988.20
2019-05-29T17:52:38.091Z,98990.62
2019-05-29T17:55:12.078Z,98988.20
2019-05-29T17:57:40.799Z,98994.21
2019-05-29T18:00:13.139Z,98994.11
2019-05-29T18:02:51.509Z,98997.43
2019-05-29T18:05:12.889Z,99001.11
2019-05-29T18:07:41.870Z,99001.64
2019-05-29T18:10:12.388Z,99006.56
2019-05-29T18:12:41.201Z,99013.52
2019-05-29T18:15:10.969Z,99013.10
2019-05-29T18:17:39.883Z,99016.77
2019-05-29T18:20:14.206Z,99013.54
2019-05-29T18:22:41.028Z,99012.89
2019-05-29T18:25:10.646Z,99021.02
2019-05-29T18:27:39.361Z,99027.33
2019-05-29T18:30:10.440Z,99039.86
2019-05-29T18:32:39.172Z,99049.72
2019-05-29T18:35:08.683Z,99051.71
2019-05-29T18:37:37.534Z,99056.14
2019-05-29T18:40:12.265Z,99055.28
2019-05-29T18:42:38.400Z,99065.88
2019-05-29T18:45:19.775Z,99068.48
2019-05-29T18:47:38.607Z,99074.28
2019-05-29T18:50:13.867Z,99086.31
2019-05-29T18:52:42.593Z,99104.89
2019-05-29T18:55:11.673Z,99123.17
2019-05-29T18:57:40.560Z,99129.28
2019-05-29T19:00:10.575Z,99123.94
2019-05-29T19:02:39.391Z,99133.90
2019-05-29T19:05:08.892Z,99149.75
2019-05-29T19:07:37.636Z,99159.23
2019-05-29T19:10:07.309Z,99161.17
2019-05-29T19:12:36.186Z,99153.77
2019-05-29T19:15:07.881Z,99155.90
2019-05-29T19:17:36.611Z,99153.06
2019-05-29T19:20:06.903Z,99153.22
2019-05-29T19:22:35.608Z,99144.78
2019-05-29T19:25:07.890Z,99150.92
2019-05-29T19:27:41.408Z,99155.70
2019-05-29T19:30:13.421Z,99154.73
2019-05-29T19:32:42.910Z,99159.91
2019-05-29T19:35:12.132Z,99161.27
2019-05-29T19:37:40.904Z,99158.09
2019-05-29T19:40:10.204Z,99159.27
2019-05-29T19:42:38.950Z,99159.87
2019-05-29T19:45:11.011Z,99162.39
2019-05-29T19:47:39.861Z,99158.77
2019-05-29T19:50:11.269Z,99178.95
2019-05-29T19:52:40.231Z,99190.55
2019-05-29T19:55:10.033Z,99194.56
2019-05-29T19:57:54.925Z,99198.72
2019-05-29T20:00:10.886Z,99201.75
2019-05-29T20:02:40.449Z,99210.09
2019-05-29T20:05:09.466Z,99212.93
2019-05-29T20:07:38.681Z,99218.64
2019-05-29T20:10:09.321Z,99222.25
2019-05-29T20:12:39.515Z,99213.89
2019-05-29T20:15:08.541Z,99208.58
2019-05-29T20:17:38.518Z,99213.38
2019-05-29T20:20:07.814Z,99212.62
2019-05-29T20:22:36.991Z,99212.60
2019-05-29T20:25:09.364Z,99214.71
2019-05-29T20:27:38.559Z,99212.60
2019-05-29T20:30:10.032Z,99214.52
2019-05-29T20:32:39.054Z,99221.52
2019-05-29T20:35:07.838Z,99232.13
2019-05-29T20:37:36.559Z,99236.64
2019-05-29T20:40:07.282Z,99228.42
2019-05-29T20:42:36.377Z,99235.28
2019-05-29T20:45:07.014Z,99234.88
2019-05-29T20:47:35.869Z,99230.34
2019-05-29T20:50:06.152Z,99234.10
2019-05-29T20:52:35.210Z,99239.95
2019-05-29T20:55:05.139Z,99257.25
2019-05-29T20:57:33.868Z,99258.41
2019-05-29T21:00:02.569Z,99259.21
2019-05-29T21:02:32.030Z,99258.80
2019-05-29T21:05:00.765Z,99262.61
2019-05-29T21:07:29.478Z,99255.36
2019-05-29T21:09:58.238Z,99251.33
2019-05-29T21:12:26.963Z,99258.47
2019-05-29T21:14:55.692Z,99261.91
2019-05-29T21:17:24.446Z,99260.78
2019-05-29T21:19:53.159Z,99256.16
2019-05-29T21:22:22.802Z,99268.67
2019-05-29T21:25:02.834Z,99264.69
2019-05-29T21:27:22.127Z,99268.03
2019-05-29T21:29:50.860Z,99269.91
2019-05-29T21:32:19.691Z,99282.02
2019-05-29T21:34:48.419Z,99282.75
2019-05-29T21:37:17.134Z,99284.80
2019-05-29T21:39:46.683Z,99286.06
2019-05-29T21:42:15.588Z,99287.41
2019-05-29T21:44:44.887Z,99288.27
2019-05-29T21:47:13.868Z,99301.13
2019-05-29T21:49:43.278Z,99304.17
2019-05-29T21:52:12.105Z,99297.74
2019-05-29T21:54:41.430Z,99296.91
2019-05-29T21:57:10.182Z,99302.06
2019-05-29T21:59:39.655Z,99306.66
2019-05-29T22:02:09.145Z,99313.10
2019-05-29T22:04:38.369Z,99315.53
2019-05-29T22:07:07.457Z,99312.13
2019-05-29T22:09:36.320Z,99313.79
2019-05-29T22:12:05.242Z,99313.39
2019-05-29T22:14:34.004Z,99306.33
2019-05-29T22:17:02.892Z,99314.89
2019-05-29T22:19:31.602Z,99313.58
2019-05-29T22:22:01.308Z,99317.41
2019-05-29T22:24:30.256Z,99320.29
2019-05-29T22:26:59.370Z,99323.11
2019-05-29T22:29:28.176Z,99325.19
2019-05-29T22:31:57.535Z,99327.19
2019-05-29T22:34:26.372Z,99328.03
2019-05-29T22:36:55.459Z,99337.05
2019-05-29T22:39:24.426Z,99338.00
2019-05-29T22:41:53.457Z,99334.94
2019-05-29T22:44:22.245Z,99338.93
2019-05-29T22:46:51.647Z,99340.26
2019-05-29T22:49:20.411Z,99331.28
2019-05-29T22:51:49.126Z,99333.91
2019-05-29T22:54:18.017Z,99335.00
2019-05-29T22:56:46.730Z,99333.78
2019-05-29T22:59:30.894Z,99331.06
2019-05-29T23:01:45.956Z,99335.28
2019-05-29T23:04:14.672Z,99325.13
2019-05-29T23:06:43.388Z,99325.20
2019-05-29T23:09:12.252Z,99329.48
2019-05-29T23:11:40.967Z,99325.59
2019-05-29T23:14:09.684Z,99338.77
2019-05-29T23:16:38.735Z,99344.45
2019-05-29T23:19:07.462Z,99341.95
2019-05-29T23:21:36.162Z,99344.55
2019-05-29T23:24:05.450Z,99348.59
2019-05-29T23:26:34.175Z,99351.18
2019-05-29T23:29:03.916Z,99344.27
2019-05-29T23:31:32.722Z,99343.66
2019-05-29T23:34:01.441Z,99343.09
2019-05-29T23:36:30.155Z,99338.84
2019-05-29T23:38:59.301Z,99341.61
2019-05-29T23:41:28.041Z,99339.55
2019-05-29T23:43:57.432Z,99345.25
2019-05-29T23:46:26.390Z,99347.60
2019-05-29T23:48:55.393Z,99339.30
2019-05-29T23:51:24.215Z,99347.66
2019-05-29T23:53:53.594Z,99347.42
2019-05-29T23:56:22.388Z,99350.38
2019-05-29T23:58:51.103Z,99354.05
